sensor_id;sensor_type;location;lat;lon;timestamp;temperature;humidity
27803;DHT22;15182;48.174;11.562;2023-11-19T00:00:08;10.40;99.60
27803;DHT22;15182;48.174;11.562;2023-11-19T00:02:38;10.40;99.70
27803;DHT22;15182;48.174;11.562;2023-11-19T00:05:08;10.40;99.70
27803;DHT22;15182;48.174;11.562;2023-11-19T00:07:37;10.40;99.80
27803;DHT22;15182;48.174;11.562;2023-11-19T00:10:08;10.40;99.80
27803;DHT22;15182;48.174;11.562;2023-11-19T00:12:37;10.40;99.90
27803;DHT22;15182;48.174;11.562;2023-11-19T00:15:06;10.40;99.90
27803;DHT22;15182;48.174;11.562;2023-11-19T00:17:37;10.40;99.90
27803;DHT22;15182;48.174;11.562;2023-11-19T00:20:09;10.40;99.90
27803;DHT22;15182;48.174;11.562;2023-11-19T00:22:37;10.40;99.90
27803;DHT22;15182;48.174;11.562;2023-11-19T00:25:06;10.40;99.90
27803;DHT22;15182;48.174;11.562;2023-11-19T00:27:34;10.40;99.90
27803;DHT22;15182;48.174;11.562;2023-11-19T00:30:05;10.40;99.90
27803;DHT22;15182;48.174;11.562;2023-11-19T00:32:34;10.40;99.90
27803;DHT22;15182;48.174;11.562;2023-11-19T00:35:03;10.40;99.90
27803;DHT22;15182;48.174;11.562;2023-11-19T00:37:33;10.40;99.90
27803;DHT22;15182;48.174;11.562;2023-11-19T00:40:01;10.50;99.90
27803;DHT22;15182;48.174;11.562;2023-11-19T00:42:31;10.50;99.90
27803;DHT22;15182;48.174;11.562;2023-11-19T00:44:59;10.50;99.90
27803;DHT22;15182;48.174;11.562;2023-11-19T00:47:27;10.50;99.90
27803;DHT22;15182;48.174;11.562;2023-11-19T00:49:57;10.60;99.90
27803;DHT22;15182;48.174;11.562;2023-11-19T00:52:25;10.60;99.90
27803;DHT22;15182;48.174;11.562;2023-11-19T00:54:54;10.60;99.90
27803;DHT22;15182;48.174;11.562;2023-11-19T00:57:23;10.60;99.90
27803;DHT22;15182;48.174;11.562;2023-11-19T00:59:52;10.60;99.90
27803;DHT22;15182;48.174;11.562;2023-11-19T01:02:20;10.70;99.90
27803;DHT22;15182;48.174;11.562;2023-11-19T01:04:48;10.60;99.90
27803;DHT22;15182;48.174;11.562;2023-11-19T01:07:16;10.70;99.90
27803;DHT22;15182;48.174;11.562;2023-11-19T01:09:44;10.70;99.90
27803;DHT22;15182;48.174;11.562;2023-11-19T01:12:13;10.70;99.90
27803;DHT22;15182;48.174;11.562;2023-11-19T01:14:41;10.70;99.90
27803;DHT22;15182;48.174;11.562;2023-11-19T01:17:09;10.80;99.90
27803;DHT22;15182;48.174;11.562;2023-11-19T01:19:37;10.80;99.90
27803;DHT22;15182;48.174;11.562;2023-11-19T01:22:04;10.80;99.90
27803;DHT22;15182;48.174;11.562;2023-11-19T01:24:31;10.80;99.90
27803;DHT22;15182;48.174;11.562;2023-11-19T01:27:00;10.80;99.90
27803;DHT22;15182;48.174;11.562;2023-11-19T01:29:29;10.80;99.90
27803;DHT22;15182;48.174;11.562;2023-11-19T01:31:57;10.80;99.90
27803;DHT22;15182;48.174;11.562;2023-11-19T01:34:25;10.90;99.90
27803;DHT22;15182;48.174;11.562;2023-11-19T01:36:53;10.90;99.90
27803;DHT22;15182;48.174;11.562;2023-11-19T01:39:21;10.90;99.90
27803;DHT22;15182;48.174;11.562;2023-11-19T01:41:49;10.90;99.90
27803;DHT22;15182;48.174;11.562;2023-11-19T01:44:20;11.00;99.90
27803;DHT22;15182;48.174;11.562;2023-11-19T01:46:50;11.00;99.90
27803;DHT22;15182;48.174;11.562;2023-11-19T01:49:19;11.00;99.90
27803;DHT22;15182;48.174;11.562;2023-11-19T01:51:48;11.00;99.90
27803;DHT22;15182;48.174;11.562;2023-11-19T01:54:16;11.00;99.90
27803;DHT22;15182;48.174;11.562;2023-11-19T01:56:44;11.00;99.90
27803;DHT22;15182;48.174;11.562;2023-11-19T01:59:12;11.10;99.90
27803;DHT22;15182;48.174;11.562;2023-11-19T02:01:41;11.10;99.90
27803;DHT22;15182;48.174;11.562;2023-11-19T02:04:11;11.10;99.90
27803;DHT22;15182;48.174;11.562;2023-11-19T02:06:41;11.10;99.90
27803;DHT22;15182;48.174;11.562;2023-11-19T02:09:09;11.10;99.90
27803;DHT22;15182;48.174;11.562;2023-11-19T02:11:39;11.10;99.90
27803;DHT22;15182;48.174;11.562;2023-11-19T02:14:07;11.10;99.90
27803;DHT22;15182;48.174;11.562;2023-11-19T02:16:35;11.10;99.90
27803;DHT22;15182;48.174;11.562;2023-11-19T02:19:03;11.20;99.90
27803;DHT22;15182;48.174;11.562;2023-11-19T02:21:34;11.20;99.90
27803;DHT22;15182;48.174;11.562;2023-11-19T02:24:03;11.20;99.90
27803;DHT22;15182;48.174;11.562;2023-11-19T02:26:39;11.20;99.90
27803;DHT22;15182;48.174;11.562;2023-11-19T02:29:12;11.30;99.90
27803;DHT22;15182;48.174;11.562;2023-11-19T02:31:40;11.30;99.90
27803;DHT22;15182;48.174;11.562;2023-11-19T02:34:10;11.30;99.90
27803;DHT22;15182;48.174;11.562;2023-11-19T02:36:39;11.30;99.90
27803;DHT22;15182;48.174;11.562;2023-11-19T02:39:08;11.30;99.90
27803;DHT22;15182;48.174;11.562;2023-11-19T02:41:38;11.40;99.90
27803;DHT22;15182;48.174;11.562;2023-11-19T02:44:06;11.40;99.90
27803;DHT22;15182;48.174;11.562;2023-11-19T02:46:35;11.40;99.90
27803;DHT22;15182;48.174;11.562;2023-11-19T02:49:03;11.40;99.90
27803;DHT22;15182;48.174;11.562;2023-11-19T02:51:33;11.40;99.90
27803;DHT22;15182;48.174;11.562;2023-11-19T02:54:02;11.40;99.90
27803;DHT22;15182;48.174;11.562;2023-11-19T02:56:30;11.50;99.90
27803;DHT22;15182;48.174;11.562;2023-11-19T02:59:02;11.50;99.90
27803;DHT22;15182;48.174;11.562;2023-11-19T03:01:43;11.50;99.90
27803;DHT22;15182;48.174;11.562;2023-11-19T03:04:16;11.50;99.90
27803;DHT22;15182;48.174;11.562;2023-11-19T03:06:46;11.50;99.90
27803;DHT22;15182;48.174;11.562;2023-11-19T03:09:14;11.60;99.90
27803;DHT22;15182;48.174;11.562;2023-11-19T03:11:42;11.60;99.90
27803;DHT22;15182;48.174;11.562;2023-11-19T03:14:10;11.60;99.90
27803;DHT22;15182;48.174;11.562;2023-11-19T03:16:38;11.60;99.90
27803;DHT22;15182;48.174;11.562;2023-11-19T03:19:07;11.70;99.90
27803;DHT22;15182;48.174;11.562;2023-11-19T03:21:35;11.70;99.90
27803;DHT22;15182;48.174;11.562;2023-11-19T03:24:03;11.70;99.90
27803;DHT22;15182;48.174;11.562;2023-11-19T03:26:31;11.70;99.90
27803;DHT22;15182;48.174;11.562;2023-11-19T03:29:01;11.70;99.90
27803;DHT22;15182;48.174;11.562;2023-11-19T03:31:29;11.80;99.90
27803;DHT22;15182;48.174;11.562;2023-11-19T03:33:56;11.80;99.90
27803;DHT22;15182;48.174;11.562;2023-11-19T03:36:31;11.90;99.90
27803;DHT22;15182;48.174;11.562;2023-11-19T03:39:00;11.90;99.90
27803;DHT22;15182;48.174;11.562;2023-11-19T03:41:29;11.90;99.90
27803;DHT22;15182;48.174;11.562;2023-11-19T03:43:57;11.90;99.90
27803;DHT22;15182;48.174;11.562;2023-11-19T03:46:25;12.00;99.90
27803;DHT22;15182;48.174;11.562;2023-11-19T03:48:53;12.00;99.90
27803;DHT22;15182;48.174;11.562;2023-11-19T03:51:21;12.00;99.90
27803;DHT22;15182;48.174;11.562;2023-11-19T03:53:50;12.00;99.90
27803;DHT22;15182;48.174;11.562;2023-11-19T03:56:18;12.10;99.90
27803;DHT22;15182;48.174;11.562;2023-11-19T03:58:47;12.10;99.90
27803;DHT22;15182;48.174;11.562;2023-11-19T04:01:15;12.10;99.90
27803;DHT22;15182;48.174;11.562;2023-11-19T04:03:43;12.10;99.90
27803;DHT22;15182;48.174;11.562;2023-11-19T04:06:11;12.20;99.90
27803;DHT22;15182;48.174;11.562;2023-11-19T04:08:39;12.20;99.90
27803;DHT22;15182;48.174;11.562;2023-11-19T04:11:09;12.20;99.90
27803;DHT22;15182;48.174;11.562;2023-11-19T04:13:36;12.30;99.90
27803;DHT22;15182;48.174;11.562;2023-11-19T04:16:05;12.30;99.90
27803;DHT22;15182;48.174;11.562;2023-11-19T04:18:33;12.30;99.90
27803;DHT22;15182;48.174;11.562;2023-11-19T04:21:01;12.40;99.90
27803;DHT22;15182;48.174;11.562;2023-11-19T04:23:29;12.40;99.90
27803;DHT22;15182;48.174;11.562;2023-11-19T04:25:56;12.40;99.90
27803;DHT22;15182;48.174;11.562;2023-11-19T04:28:26;12.40;99.90
27803;DHT22;15182;48.174;11.562;2023-11-19T04:30:53;12.50;99.90
27803;DHT22;15182;48.174;11.562;2023-11-19T04:33:22;12.50;99.90
27803;DHT22;15182;48.174;11.562;2023-11-19T04:35:51;12.50;99.90
27803;DHT22;15182;48.174;11.562;2023-11-19T04:38:19;12.60;99.90
27803;DHT22;15182;48.174;11.562;2023-11-19T04:40:47;12.60;99.90
27803;DHT22;15182;48.174;11.562;2023-11-19T04:43:14;12.60;99.90
27803;DHT22;15182;48.174;11.562;2023-11-19T04:45:44;12.60;99.90
27803;DHT22;15182;48.174;11.562;2023-11-19T04:48:12;12.70;99.90
27803;DHT22;15182;48.174;11.562;2023-11-19T04:50:40;12.70;99.90
27803;DHT22;15182;48.174;11.562;2023-11-19T04:53:08;12.80;99.90
27803;DHT22;15182;48.174;11.562;2023-11-19T04:55:36;12.70;99.90
27803;DHT22;15182;48.174;11.562;2023-11-19T04:58:04;12.80;99.90
27803;DHT22;15182;48.174;11.562;2023-11-19T05:00:32;12.80;99.90
27803;DHT22;15182;48.174;11.562;2023-11-19T05:03:02;12.80;99.90
27803;DHT22;15182;48.174;11.562;2023-11-19T05:05:30;12.80;99.90
27803;DHT22;15182;48.174;11.562;2023-11-19T05:07:58;12.90;99.90
27803;DHT22;15182;48.174;11.562;2023-11-19T05:10:26;12.90;99.90
27803;DHT22;15182;48.174;11.562;2023-11-19T05:12:53;12.90;99.90
27803;DHT22;15182;48.174;11.562;2023-11-19T05:15:22;12.90;99.90
27803;DHT22;15182;48.174;11.562;2023-11-19T05:17:50;13.00;99.90
27803;DHT22;15182;48.174;11.562;2023-11-19T05:20:20;13.00;99.90
27803;DHT22;15182;48.174;11.562;2023-11-19T05:22:48;13.00;99.90
27803;DHT22;15182;48.174;11.562;2023-11-19T05:25:17;13.00;99.90
27803;DHT22;15182;48.174;11.562;2023-11-19T05:27:46;13.10;99.90
27803;DHT22;15182;48.174;11.562;2023-11-19T05:30:14;13.10;99.90
27803;DHT22;15182;48.174;11.562;2023-11-19T05:32:42;13.10;99.90
27803;DHT22;15182;48.174;11.562;2023-11-19T05:35:10;13.10;99.90
27803;DHT22;15182;48.174;11.562;2023-11-19T05:37:40;13.10;99.90
27803;DHT22;15182;48.174;11.562;2023-11-19T05:40:08;13.10;99.90
27803;DHT22;15182;48.174;11.562;2023-11-19T05:42:40;13.20;99.90
27803;DHT22;15182;48.174;11.562;2023-11-19T05:45:10;13.20;99.90
27803;DHT22;15182;48.174;11.562;2023-11-19T05:47:38;13.20;99.90
27803;DHT22;15182;48.174;11.562;2023-11-19T05:50:07;13.20;99.90
27803;DHT22;15182;48.174;11.562;2023-11-19T05:52:36;13.20;99.90
27803;DHT22;15182;48.174;11.562;2023-11-19T05:55:06;13.20;99.90
27803;DHT22;15182;48.174;11.562;2023-11-19T05:57:36;13.20;99.90
27803;DHT22;15182;48.174;11.562;2023-11-19T06:00:05;13.20;99.90
27803;DHT22;15182;48.174;11.562;2023-11-19T06:02:38;13.20;99.90
27803;DHT22;15182;48.174;11.562;2023-11-19T06:05:06;13.20;99.90
27803;DHT22;15182;48.174;11.562;2023-11-19T06:07:35;13.20;99.90
27803;DHT22;15182;48.174;11.562;2023-11-19T06:10:07;13.20;99.90
27803;DHT22;15182;48.174;11.562;2023-11-19T06:12:36;13.20;99.90
27803;DHT22;15182;48.174;11.562;2023-11-19T06:15:05;13.20;99.90
27803;DHT22;15182;48.174;11.562;2023-11-19T06:17:34;13.30;99.90
27803;DHT22;15182;48.174;11.562;2023-11-19T06:20:04;13.30;99.90
27803;DHT22;15182;48.174;11.562;2023-11-19T06:22:33;13.30;99.90
27803;DHT22;15182;48.174;11.562;2023-11-19T06:25:02;13.30;99.90
27803;DHT22;15182;48.174;11.562;2023-11-19T06:27:35;13.30;99.90
27803;DHT22;15182;48.174;11.562;2023-11-19T06:30:03;13.30;99.90
27803;DHT22;15182;48.174;11.562;2023-11-19T06:32:32;13.30;99.90
27803;DHT22;15182;48.174;11.562;2023-11-19T06:35:00;13.30;99.90
27803;DHT22;15182;48.174;11.562;2023-11-19T06:37:27;13.30;99.90
27803;DHT22;15182;48.174;11.562;2023-11-19T06:39:55;13.30;99.90
27803;DHT22;15182;48.174;11.562;2023-11-19T06:42:23;13.30;99.90
27803;DHT22;15182;48.174;11.562;2023-11-19T06:44:52;13.40;99.90
27803;DHT22;15182;48.174;11.562;2023-11-19T06:47:20;13.40;99.90
27803;DHT22;15182;48.174;11.562;2023-11-19T06:49:48;13.40;99.90
27803;DHT22;15182;48.174;11.562;2023-11-19T06:52:16;13.40;99.90
27803;DHT22;15182;48.174;11.562;2023-11-19T06:54:44;13.40;99.90
27803;DHT22;15182;48.174;11.562;2023-11-19T06:57:12;13.40;99.90
27803;DHT22;15182;48.174;11.562;2023-11-19T06:59:40;13.50;99.90
27803;DHT22;15182;48.174;11.562;2023-11-19T07:02:11;13.50;99.90
27803;DHT22;15182;48.174;11.562;2023-11-19T07:04:40;13.50;99.90
27803;DHT22;15182;48.174;11.562;2023-11-19T07:07:08;13.50;99.90
27803;DHT22;15182;48.174;11.562;2023-11-19T07:09:36;13.50;99.90
27803;DHT22;15182;48.174;11.562;2023-11-19T07:12:05;13.50;99.90
27803;DHT22;15182;48.174;11.562;2023-11-19T07:14:33;13.60;99.90
27803;DHT22;15182;48.174;11.562;2023-11-19T07:17:01;13.60;99.90
27803;DHT22;15182;48.174;11.562;2023-11-19T07:19:30;13.60;99.90
27803;DHT22;15182;48.174;11.562;2023-11-19T07:21:58;13.60;99.90
27803;DHT22;15182;48.174;11.562;2023-11-19T07:24:26;13.70;99.90
27803;DHT22;15182;48.174;11.562;2023-11-19T07:26:54;13.70;99.90
27803;DHT22;15182;48.174;11.562;2023-11-19T07:29:22;13.70;99.90
27803;DHT22;15182;48.174;11.562;2023-11-19T07:31:50;13.70;99.90
27803;DHT22;15182;48.174;11.562;2023-11-19T07:34:18;13.70;99.90
27803;DHT22;15182;48.174;11.562;2023-11-19T07:36:48;13.80;99.90
27803;DHT22;15182;48.174;11.562;2023-11-19T07:39:16;13.80;99.90
27803;DHT22;15182;48.174;11.562;2023-11-19T07:41:44;13.80;99.90
27803;DHT22;15182;48.174;11.562;2023-11-19T07:44:12;13.80;99.90
27803;DHT22;15182;48.174;11.562;2023-11-19T07:46:40;13.80;99.90
27803;DHT22;15182;48.174;11.562;2023-11-19T07:49:08;13.90;99.90
27803;DHT22;15182;48.174;11.562;2023-11-19T07:51:36;13.90;99.90
27803;DHT22;15182;48.174;11.562;2023-11-19T07:54:06;13.90;99.90
27803;DHT22;15182;48.174;11.562;2023-11-19T07:56:33;13.90;99.90
27803;DHT22;15182;48.174;11.562;2023-11-19T07:59:01;14.00;99.90
27803;DHT22;15182;48.174;11.562;2023-11-19T08:01:29;14.00;99.90
27803;DHT22;15182;48.174;11.562;2023-11-19T08:03:57;14.00;99.90
27803;DHT22;15182;48.174;11.562;2023-11-19T08:06:25;14.00;99.90
27803;DHT22;15182;48.174;11.562;2023-11-19T08:08:53;14.00;99.90
27803;DHT22;15182;48.174;11.562;2023-11-19T08:11:22;14.00;99.90
27803;DHT22;15182;48.174;11.562;2023-11-19T08:13:50;14.10;99.90
27803;DHT22;15182;48.174;11.562;2023-11-19T08:16:18;14.10;99.90
27803;DHT22;15182;48.174;11.562;2023-11-19T08:18:46;14.10;99.90
27803;DHT22;15182;48.174;11.562;2023-11-19T08:21:14;14.10;99.90
27803;DHT22;15182;48.174;11.562;2023-11-19T08:23:41;14.10;99.90
27803;DHT22;15182;48.174;11.562;2023-11-19T08:26:09;14.20;99.90
27803;DHT22;15182;48.174;11.562;2023-11-19T08:28:39;14.20;99.90
27803;DHT22;15182;48.174;11.562;2023-11-19T08:31:07;14.20;99.90
27803;DHT22;15182;48.174;11.562;2023-11-19T08:33:34;14.30;99.90
27803;DHT22;15182;48.174;11.562;2023-11-19T08:36:04;14.30;99.90
27803;DHT22;15182;48.174;11.562;2023-11-19T08:38:32;14.30;99.90
27803;DHT22;15182;48.174;11.562;2023-11-19T08:41:00;14.30;99.90
27803;DHT22;15182;48.174;11.562;2023-11-19T08:43:28;14.40;99.90
27803;DHT22;15182;48.174;11.562;2023-11-19T08:45:59;14.40;99.90
27803;DHT22;15182;48.174;11.562;2023-11-19T08:48:27;14.40;99.90
27803;DHT22;15182;48.174;11.562;2023-11-19T08:50:55;14.40;99.90
27803;DHT22;15182;48.174;11.562;2023-11-19T08:53:22;14.40;99.90
27803;DHT22;15182;48.174;11.562;2023-11-19T08:55:50;14.40;99.90
27803;DHT22;15182;48.174;11.562;2023-11-19T08:58:18;14.50;99.90
27803;DHT22;15182;48.174;11.562;2023-11-19T09:00:46;14.50;99.90
27803;DHT22;15182;48.174;11.562;2023-11-19T09:03:15;14.50;99.90
27803;DHT22;15182;48.174;11.562;2023-11-19T09:05:43;14.50;99.90
27803;DHT22;15182;48.174;11.562;2023-11-19T09:08:11;14.50;99.90
27803;DHT22;15182;48.174;11.562;2023-11-19T09:10:39;14.60;99.90
27803;DHT22;15182;48.174;11.562;2023-11-19T09:13:07;14.60;99.90
27803;DHT22;15182;48.174;11.562;2023-11-19T09:15:35;14.60;99.90
27803;DHT22;15182;48.174;11.562;2023-11-19T09:18:03;14.60;99.90
27803;DHT22;15182;48.174;11.562;2023-11-19T09:20:32;14.70;99.90
27803;DHT22;15182;48.174;11.562;2023-11-19T09:23:04;14.70;99.90
27803;DHT22;15182;48.174;11.562;2023-11-19T09:25:32;14.70;99.90
27803;DHT22;15182;48.174;11.562;2023-11-19T09:28:00;14.70;99.90
27803;DHT22;15182;48.174;11.562;2023-11-19T09:30:28;14.80;99.90
27803;DHT22;15182;48.174;11.562;2023-11-19T09:32:56;14.80;99.90
27803;DHT22;15182;48.174;11.562;2023-11-19T09:35:23;14.80;99.90
27803;DHT22;15182;48.174;11.562;2023-11-19T09:37:53;14.80;99.90
27803;DHT22;15182;48.174;11.562;2023-11-19T09:40:20;14.90;99.90
27803;DHT22;15182;48.174;11.562;2023-11-19T09:42:48;14.90;99.90
27803;DHT22;15182;48.174;11.562;2023-11-19T09:45:17;14.90;99.90
27803;DHT22;15182;48.174;11.562;2023-11-19T09:47:51;15.00;99.90
27803;DHT22;15182;48.174;11.562;2023-11-19T09:50:19;15.00;99.90
27803;DHT22;15182;48.174;11.562;2023-11-19T09:52:47;15.00;99.90
27803;DHT22;15182;48.174;11.562;2023-11-19T09:55:17;15.00;99.90
27803;DHT22;15182;48.174;11.562;2023-11-19T09:57:45;15.00;99.90
27803;DHT22;15182;48.174;11.562;2023-11-19T10:00:15;15.00;99.90
27803;DHT22;15182;48.174;11.562;2023-11-19T10:02:45;15.10;99.90
27803;DHT22;15182;48.174;11.562;2023-11-19T10:05:13;15.00;99.90
27803;DHT22;15182;48.174;11.562;2023-11-19T10:07:42;15.10;99.90
27803;DHT22;15182;48.174;11.562;2023-11-19T10:10:10;15.10;99.90
27803;DHT22;15182;48.174;11.562;2023-11-19T10:12:45;15.20;99.90
27803;DHT22;15182;48.174;11.562;2023-11-19T10:15:19;15.20;99.90
27803;DHT22;15182;48.174;11.562;2023-11-19T10:17:48;15.30;99.90
27803;DHT22;15182;48.174;11.562;2023-11-19T10:20:16;15.30;99.90
27803;DHT22;15182;48.174;11.562;2023-11-19T10:22:44;15.40;99.90
27803;DHT22;15182;48.174;11.562;2023-11-19T10:25:25;15.50;99.90
27803;DHT22;15182;48.174;11.562;2023-11-19T10:27:56;15.60;99.90
27803;DHT22;15182;48.174;11.562;2023-11-19T10:30:24;15.60;99.90
27803;DHT22;15182;48.174;11.562;2023-11-19T10:33:07;15.70;99.90
27803;DHT22;15182;48.174;11.562;2023-11-19T10:35:37;15.80;99.90
27803;DHT22;15182;48.174;11.562;2023-11-19T10:38:18;16.00;99.90
27803;DHT22;15182;48.174;11.562;2023-11-19T10:40:47;16.10;99.90
27803;DHT22;15182;48.174;11.562;2023-11-19T10:43:16;16.20;99.90
27803;DHT22;15182;48.174;11.562;2023-11-19T10:45:44;16.30;99.90
27803;DHT22;15182;48.174;11.562;2023-11-19T10:48:12;16.40;99.90
27803;DHT22;15182;48.174;11.562;2023-11-19T10:50:42;16.40;99.90
27803;DHT22;15182;48.174;11.562;2023-11-19T10:53:11;16.50;99.90
27803;DHT22;15182;48.174;11.562;2023-11-19T10:55:40;16.50;99.90
27803;DHT22;15182;48.174;11.562;2023-11-19T10:58:08;16.60;99.90
27803;DHT22;15182;48.174;11.562;2023-11-19T11:00:44;16.70;99.90
27803;DHT22;15182;48.174;11.562;2023-11-19T11:03:16;16.70;99.90
27803;DHT22;15182;48.174;11.562;2023-11-19T11:05:47;16.80;99.90
27803;DHT22;15182;48.174;11.562;2023-11-19T11:08:15;16.80;99.90
27803;DHT22;15182;48.174;11.562;2023-11-19T11:10:45;16.80;99.90
27803;DHT22;15182;48.174;11.562;2023-11-19T11:13:17;16.80;99.90
27803;DHT22;15182;48.174;11.562;2023-11-19T11:15:47;16.80;99.90
27803;DHT22;15182;48.174;11.562;2023-11-19T11:18:16;16.80;99.90
27803;DHT22;15182;48.174;11.562;2023-11-19T11:20:45;16.80;99.90
27803;DHT22;15182;48.174;11.562;2023-11-19T11:23:30;16.90;99.90
27803;DHT22;15182;48.174;11.562;2023-11-19T11:26:23;16.90;99.90
27803;DHT22;15182;48.174;11.562;2023-11-19T11:29:03;16.90;99.90
27803;DHT22;15182;48.174;11.562;2023-11-19T11:31:41;16.90;99.90
27803;DHT22;15182;48.174;11.562;2023-11-19T11:34:44;16.80;99.90
27803;DHT22;15182;48.174;11.562;2023-11-19T11:37:25;16.80;99.90
27803;DHT22;15182;48.174;11.562;2023-11-19T11:39:57;16.90;99.90
27803;DHT22;15182;48.174;11.562;2023-11-19T11:42:35;16.80;99.90
27803;DHT22;15182;48.174;11.562;2023-11-19T11:45:06;16.90;99.90
27803;DHT22;15182;48.174;11.562;2023-11-19T11:48:10;16.90;99.90
27803;DHT22;15182;48.174;11.562;2023-11-19T11:50:53;16.90;99.90
27803;DHT22;15182;48.174;11.562;2023-11-19T11:53:23;16.90;99.90
27803;DHT22;15182;48.174;11.562;2023-11-19T11:55:54;16.90;99.90
27803;DHT22;15182;48.174;11.562;2023-11-19T11:58:26;16.90;99.90
27803;DHT22;15182;48.174;11.562;2023-11-19T12:01:00;16.90;99.90
27803;DHT22;15182;48.174;11.562;2023-11-19T12:03:31;17.00;99.90
27803;DHT22;15182;48.174;11.562;2023-11-19T12:05:59;17.00;99.90
27803;DHT22;15182;48.174;11.562;2023-11-19T12:08:29;17.00;99.90
27803;DHT22;15182;48.174;11.562;2023-11-19T12:10:58;17.00;99.90
27803;DHT22;15182;48.174;11.562;2023-11-19T12:13:46;17.00;99.90
27803;DHT22;15182;48.174;11.562;2023-11-19T12:16:16;17.00;99.90
27803;DHT22;15182;48.174;11.562;2023-11-19T12:18:45;17.00;99.90
27803;DHT22;15182;48.174;11.562;2023-11-19T12:21:27;17.00;99.90
27803;DHT22;15182;48.174;11.562;2023-11-19T12:23:58;17.00;99.90
27803;DHT22;15182;48.174;11.562;2023-11-19T12:26:34;17.00;99.90
27803;DHT22;15182;48.174;11.562;2023-11-19T12:29:03;17.00;99.90
27803;DHT22;15182;48.174;11.562;2023-11-19T12:31:34;17.00;99.90
27803;DHT22;15182;48.174;11.562;2023-11-19T12:34:10;17.00;99.90
27803;DHT22;15182;48.174;11.562;2023-11-19T12:36:40;17.00;99.90
27803;DHT22;15182;48.174;11.562;2023-11-19T12:39:11;17.10;99.90
27803;DHT22;15182;48.174;11.562;2023-11-19T12:41:54;17.10;99.90
27803;DHT22;15182;48.174;11.562;2023-11-19T12:44:25;17.10;99.90
27803;DHT22;15182;48.174;11.562;2023-11-19T12:47:01;17.10;99.90
27803;DHT22;15182;48.174;11.562;2023-11-19T12:49:31;17.10;99.90
27803;DHT22;15182;48.174;11.562;2023-11-19T12:51:59;17.10;99.90
27803;DHT22;15182;48.174;11.562;2023-11-19T12:54:34;17.10;99.90
27803;DHT22;15182;48.174;11.562;2023-11-19T12:57:03;17.20;99.90
27803;DHT22;15182;48.174;11.562;2023-11-19T12:59:32;17.20;99.90
27803;DHT22;15182;48.174;11.562;2023-11-19T13:02:00;17.20;99.90
27803;DHT22;15182;48.174;11.562;2023-11-19T13:04:31;17.20;99.90
27803;DHT22;15182;48.174;11.562;2023-11-19T13:06:59;17.20;99.90
27803;DHT22;15182;48.174;11.562;2023-11-19T13:09:30;17.20;99.90
27803;DHT22;15182;48.174;11.562;2023-11-19T13:11:58;17.30;99.90
27803;DHT22;15182;48.174;11.562;2023-11-19T13:14:36;17.30;99.90
27803;DHT22;15182;48.174;11.562;2023-11-19T13:17:04;17.30;99.90
27803;DHT22;15182;48.174;11.562;2023-11-19T13:19:34;17.30;99.90
27803;DHT22;15182;48.174;11.562;2023-11-19T13:22:02;17.30;99.90
27803;DHT22;15182;48.174;11.562;2023-11-19T13:24:30;17.30;99.90
27803;DHT22;15182;48.174;11.562;2023-11-19T13:26:58;17.30;99.90
27803;DHT22;15182;48.174;11.562;2023-11-19T13:29:25;17.40;99.90
27803;DHT22;15182;48.174;11.562;2023-11-19T13:31:53;17.40;99.90
27803;DHT22;15182;48.174;11.562;2023-11-19T13:34:21;17.40;99.90
27803;DHT22;15182;48.174;11.562;2023-11-19T13:36:50;17.40;99.90
27803;DHT22;15182;48.174;11.562;2023-11-19T13:39:18;17.40;99.90
27803;DHT22;15182;48.174;11.562;2023-11-19T13:41:49;17.40;99.90
27803;DHT22;15182;48.174;11.562;2023-11-19T13:44:17;17.40;99.90
27803;DHT22;15182;48.174;11.562;2023-11-19T13:46:45;17.40;99.90
27803;DHT22;15182;48.174;11.562;2023-11-19T13:49:13;17.30;99.90
27803;DHT22;15182;48.174;11.562;2023-11-19T13:51:41;17.30;99.90
27803;DHT22;15182;48.174;11.562;2023-11-19T13:54:11;17.30;99.90
27803;DHT22;15182;48.174;11.562;2023-11-19T13:56:40;17.30;99.90
27803;DHT22;15182;48.174;11.562;2023-11-19T13:59:10;17.20;99.90
27803;DHT22;15182;48.174;11.562;2023-11-19T14:01:38;17.20;99.90
27803;DHT22;15182;48.174;11.562;2023-11-19T14:04:06;17.20;99.90
27803;DHT22;15182;48.174;11.562;2023-11-19T14:06:35;17.20;99.90
27803;DHT22;15182;48.174;11.562;2023-11-19T14:09:03;17.10;99.90
27803;DHT22;15182;48.174;11.562;2023-11-19T14:11:34;17.10;99.90
27803;DHT22;15182;48.174;11.562;2023-11-19T14:14:02;17.10;99.90
27803;DHT22;15182;48.174;11.562;2023-11-19T14:16:30;17.10;99.90
27803;DHT22;15182;48.174;11.562;2023-11-19T14:18:58;17.10;99.90
27803;DHT22;15182;48.174;11.562;2023-11-19T14:21:26;17.00;99.90
27803;DHT22;15182;48.174;11.562;2023-11-19T14:23:54;17.00;99.90
27803;DHT22;15182;48.174;11.562;2023-11-19T14:26:22;17.00;99.90
27803;DHT22;15182;48.174;11.562;2023-11-19T14:28:51;17.00;99.90
27803;DHT22;15182;48.174;11.562;2023-11-19T14:31:19;17.00;99.90
27803;DHT22;15182;48.174;11.562;2023-11-19T14:33:47;17.00;99.90
27803;DHT22;15182;48.174;11.562;2023-11-19T14:36:15;16.90;99.90
27803;DHT22;15182;48.174;11.562;2023-11-19T14:38:43;16.90;99.90
27803;DHT22;15182;48.174;11.562;2023-11-19T14:41:11;16.90;99.90
27803;DHT22;15182;48.174;11.562;2023-11-19T14:43:39;16.90;99.90
27803;DHT22;15182;48.174;11.562;2023-11-19T14:46:08;16.90;99.90
27803;DHT22;15182;48.174;11.562;2023-11-19T14:48:36;16.90;99.90
27803;DHT22;15182;48.174;11.562;2023-11-19T14:51:04;16.90;99.90
27803;DHT22;15182;48.174;11.562;2023-11-19T14:53:33;16.80;99.90
27803;DHT22;15182;48.174;11.562;2023-11-19T14:56:01;16.80;99.90
27803;DHT22;15182;48.174;11.562;2023-11-19T14:58:31;16.80;99.90
27803;DHT22;15182;48.174;11.562;2023-11-19T15:00:58;16.80;99.90
27803;DHT22;15182;48.174;11.562;2023-11-19T15:03:28;16.80;99.90
27803;DHT22;15182;48.174;11.562;2023-11-19T15:05:55;16.70;99.90
27803;DHT22;15182;48.174;11.562;2023-11-19T15:08:23;16.70;99.90
27803;DHT22;15182;48.174;11.562;2023-11-19T15:10:51;16.70;99.90
27803;DHT22;15182;48.174;11.562;2023-11-19T15:13:19;16.70;99.90
27803;DHT22;15182;48.174;11.562;2023-11-19T15:15:47;16.70;99.90
27803;DHT22;15182;48.174;11.562;2023-11-19T15:18:15;16.70;99.90
27803;DHT22;15182;48.174;11.562;2023-11-19T15:20:45;16.60;99.90
27803;DHT22;15182;48.174;11.562;2023-11-19T15:23:13;16.60;99.90
27803;DHT22;15182;48.174;11.562;2023-11-19T15:25:41;16.60;99.90
27803;DHT22;15182;48.174;11.562;2023-11-19T15:28:09;16.60;99.90